sensor_id;sensor_type;location;lat;lon;timestamp;P1;durP1;ratioP1;P2;durP2;ratioP2
68050;SDS011;54839;51.364;7.246;2023-05-14T00:01:45;10.10;;;9.10;;
68050;SDS011;54839;51.364;7.246;2023-05-14T00:04:11;9.93;;;8.93;;
68050;SDS011;54839;51.364;7.246;2023-05-14T00:06:37;9.03;;;8.13;;
68050;SDS011;54839;51.364;7.246;2023-05-14T00:09:02;9.37;;;8.40;;
68050;SDS011;54839;51.364;7.246;2023-05-14T00:11:28;11.80;;;8.80;;
68050;SDS011;54839;51.364;7.246;2023-05-14T00:13:54;10.27;;;9.27;;
68050;SDS011;54839;51.364;7.246;2023-05-14T00:16:19;10.17;;;9.00;;
68050;SDS011;54839;51.364;7.246;2023-05-14T00:18:45;10.47;;;9.43;;
68050;SDS011;54839;51.364;7.246;2023-05-14T00:21:10;8.90;;;8.20;;
68050;SDS011;54839;51.364;7.246;2023-05-14T00:23:36;9.27;;;8.33;;
68050;SDS011;54839;51.364;7.246;2023-05-14T00:26:02;9.10;;;8.33;;
68050;SDS011;54839;51.364;7.246;2023-05-14T00:28:28;9.77;;;8.77;;
68050;SDS011;54839;51.364;7.246;2023-05-14T00:30:53;9.33;;;8.43;;
68050;SDS011;54839;51.364;7.246;2023-05-14T00:33:20;10.00;;;9.10;;
68050;SDS011;54839;51.364;7.246;2023-05-14T00:35:46;9.77;;;8.87;;
68050;SDS011;54839;51.364;7.246;2023-05-14T00:38:12;8.90;;;8.10;;
68050;SDS011;54839;51.364;7.246;2023-05-14T00:40:41;9.93;;;9.03;;
68050;SDS011;54839;51.364;7.246;2023-05-14T00:43:09;9.07;;;8.27;;
68050;SDS011;54839;51.364;7.246;2023-05-14T00:45:35;9.33;;;8.40;;
68050;SDS011;54839;51.364;7.246;2023-05-14T00:48:01;10.17;;;8.80;;
68050;SDS011;54839;51.364;7.246;2023-05-14T00:50:27;9.87;;;8.97;;
68050;SDS011;54839;51.364;7.246;2023-05-14T00:52:53;9.70;;;8.83;;
68050;SDS011;54839;51.364;7.246;2023-05-14T00:55:19;11.27;;;10.17;;
68050;SDS011;54839;51.364;7.246;2023-05-14T00:57:46;9.50;;;8.60;;
68050;SDS011;54839;51.364;7.246;2023-05-14T01:00:12;10.07;;;9.17;;
68050;SDS011;54839;51.364;7.246;2023-05-14T01:02:38;9.00;;;8.20;;
68050;SDS011;54839;51.364;7.246;2023-05-14T01:05:04;11.87;;;8.47;;
68050;SDS011;54839;51.364;7.246;2023-05-14T01:07:56;11.60;;;8.93;;
68050;SDS011;54839;51.364;7.246;2023-05-14T01:10:56;9.37;;;8.57;;
68050;SDS011;54839;51.364;7.246;2023-05-14T01:16:20;8.80;;;7.90;;
68050;SDS011;54839;51.364;7.246;2023-05-14T01:18:49;9.10;;;8.40;;
68050;SDS011;54839;51.364;7.246;2023-05-14T01:21:23;8.63;;;7.90;;
68050;SDS011;54839;51.364;7.246;2023-05-14T01:24:02;11.13;;;10.03;;
68050;SDS011;54839;51.364;7.246;2023-05-14T01:26:28;9.83;;;8.90;;
68050;SDS011;54839;51.364;7.246;2023-05-14T01:28:55;10.27;;;9.37;;
68050;SDS011;54839;51.364;7.246;2023-05-14T01:31:27;11.23;;;10.23;;
68050;SDS011;54839;51.364;7.246;2023-05-14T01:33:56;9.80;;;8.97;;
68050;SDS011;54839;51.364;7.246;2023-05-14T01:36:23;11.13;;;10.00;;
68050;SDS011;54839;51.364;7.246;2023-05-14T01:38:49;11.57;;;10.53;;
68050;SDS011;54839;51.364;7.246;2023-05-14T01:41:16;9.80;;;8.90;;
68050;SDS011;54839;51.364;7.246;2023-05-14T01:43:43;10.00;;;9.20;;
68050;SDS011;54839;51.364;7.246;2023-05-14T01:46:09;9.30;;;8.57;;
68050;SDS011;54839;51.364;7.246;2023-05-14T01:48:35;10.90;;;9.23;;
68050;SDS011;54839;51.364;7.246;2023-05-14T01:51:01;14.27;;;10.30;;
68050;SDS011;54839;51.364;7.246;2023-05-14T01:53:27;11.00;;;10.00;;
68050;SDS011;54839;51.364;7.246;2023-05-14T01:55:53;10.30;;;9.30;;
68050;SDS011;54839;51.364;7.246;2023-05-14T01:58:19;11.70;;;10.53;;
68050;SDS011;54839;51.364;7.246;2023-05-14T02:00:44;10.80;;;9.93;;
68050;SDS011;54839;51.364;7.246;2023-05-14T02:03:10;10.20;;;9.20;;
68050;SDS011;54839;51.364;7.246;2023-05-14T02:05:35;15.07;;;11.73;;
68050;SDS011;54839;51.364;7.246;2023-05-14T02:08:01;10.83;;;9.70;;
68050;SDS011;54839;51.364;7.246;2023-05-14T02:10:26;11.40;;;10.40;;
68050;SDS011;54839;51.364;7.246;2023-05-14T02:12:52;10.90;;;10.00;;
68050;SDS011;54839;51.364;7.246;2023-05-14T02:15:17;12.00;;;10.80;;
68050;SDS011;54839;51.364;7.246;2023-05-14T02:17:43;12.53;;;11.23;;
68050;SDS011;54839;51.364;7.246;2023-05-14T02:20:08;10.73;;;9.83;;
68050;SDS011;54839;51.364;7.246;2023-05-14T02:22:34;11.33;;;10.23;;
68050;SDS011;54839;51.364;7.246;2023-05-14T02:25:00;13.07;;;11.43;;
68050;SDS011;54839;51.364;7.246;2023-05-14T02:27:25;13.10;;;9.70;;
68050;SDS011;54839;51.364;7.246;2023-05-14T02:29:51;12.43;;;10.13;;
68050;SDS011;54839;51.364;7.246;2023-05-14T02:32:17;13.40;;;11.23;;
68050;SDS011;54839;51.364;7.246;2023-05-14T02:34:42;12.43;;;11.33;;
68050;SDS011;54839;51.364;7.246;2023-05-14T02:37:08;10.50;;;9.60;;
68050;SDS011;54839;51.364;7.246;2023-05-14T02:39:33;11.93;;;10.70;;
68050;SDS011;54839;51.364;7.246;2023-05-14T02:41:59;11.13;;;10.13;;
68050;SDS011;54839;51.364;7.246;2023-05-14T02:44:25;11.10;;;10.07;;
68050;SDS011;54839;51.364;7.246;2023-05-14T02:46:50;11.17;;;10.20;;
68050;SDS011;54839;51.364;7.246;2023-05-14T02:49:16;11.33;;;10.20;;
68050;SDS011;54839;51.364;7.246;2023-05-14T02:51:41;11.43;;;10.30;;
68050;SDS011;54839;51.364;7.246;2023-05-14T02:54:06;10.17;;;9.20;;
68050;SDS011;54839;51.364;7.246;2023-05-14T02:56:32;11.07;;;9.97;;
68050;SDS011;54839;51.364;7.246;2023-05-14T02:58:58;12.10;;;11.00;;
68050;SDS011;54839;51.364;7.246;2023-05-14T03:01:23;11.43;;;10.43;;
68050;SDS011;54839;51.364;7.246;2023-05-14T03:03:49;12.03;;;10.90;;
68050;SDS011;54839;51.364;7.246;2023-05-14T03:06:14;12.53;;;11.10;;
68050;SDS011;54839;51.364;7.246;2023-05-14T03:08:40;12.07;;;10.80;;
68050;SDS011;54839;51.364;7.246;2023-05-14T03:11:05;11.70;;;10.70;;
68050;SDS011;54839;51.364;7.246;2023-05-14T03:13:31;14.00;;;10.93;;
68050;SDS011;54839;51.364;7.246;2023-05-14T03:15:56;12.53;;;11.20;;
68050;SDS011;54839;51.364;7.246;2023-05-14T03:18:22;13.80;;;11.63;;
68050;SDS011;54839;51.364;7.246;2023-05-14T03:20:47;11.93;;;10.83;;
68050;SDS011;54839;51.364;7.246;2023-05-14T03:23:13;12.00;;;10.87;;
68050;SDS011;54839;51.364;7.246;2023-05-14T03:25:39;12.53;;;11.37;;
68050;SDS011;54839;51.364;7.246;2023-05-14T03:28:05;16.43;;;12.17;;
68050;SDS011;54839;51.364;7.246;2023-05-14T03:30:30;14.27;;;11.90;;
68050;SDS011;54839;51.364;7.246;2023-05-14T03:32:56;13.60;;;12.20;;
68050;SDS011;54839;51.364;7.246;2023-05-14T03:35:22;13.60;;;12.20;;
68050;SDS011;54839;51.364;7.246;2023-05-14T03:37:47;13.70;;;12.40;;
68050;SDS011;54839;51.364;7.246;2023-05-14T03:40:13;14.07;;;12.47;;
68050;SDS011;54839;51.364;7.246;2023-05-14T03:42:38;21.80;;;13.83;;
68050;SDS011;54839;51.364;7.246;2023-05-14T03:45:04;14.40;;;13.00;;
68050;SDS011;54839;51.364;7.246;2023-05-14T03:47:30;13.43;;;12.03;;
68050;SDS011;54839;51.364;7.246;2023-05-14T03:49:56;13.27;;;11.97;;
68050;SDS011;54839;51.364;7.246;2023-05-14T03:52:21;11.83;;;10.73;;
68050;SDS011;54839;51.364;7.246;2023-05-14T03:54:47;11.53;;;10.33;;
68050;SDS011;54839;51.364;7.246;2023-05-14T03:57:13;12.57;;;11.47;;
68050;SDS011;54839;51.364;7.246;2023-05-14T03:59:38;12.47;;;11.30;;
68050;SDS011;54839;51.364;7.246;2023-05-14T04:02:04;13.23;;;11.07;;
68050;SDS011;54839;51.364;7.246;2023-05-14T04:04:29;14.83;;;12.10;;
68050;SDS011;54839;51.364;7.246;2023-05-14T04:06:55;12.40;;;11.30;;
68050;SDS011;54839;51.364;7.246;2023-05-14T04:09:20;13.70;;;10.43;;
68050;SDS011;54839;51.364;7.246;2023-05-14T04:11:47;12.43;;;11.13;;
68050;SDS011;54839;51.364;7.246;2023-05-14T04:14:12;14.40;;;13.00;;
68050;SDS011;54839;51.364;7.246;2023-05-14T04:16:38;13.07;;;11.77;;
68050;SDS011;54839;51.364;7.246;2023-05-14T04:19:03;11.70;;;10.70;;
68050;SDS011;54839;51.364;7.246;2023-05-14T04:21:29;11.80;;;10.63;;
68050;SDS011;54839;51.364;7.246;2023-05-14T04:23:55;11.50;;;10.50;;
68050;SDS011;54839;51.364;7.246;2023-05-14T04:26:21;12.97;;;11.73;;
68050;SDS011;54839;51.364;7.246;2023-05-14T04:28:46;11.83;;;10.77;;
68050;SDS011;54839;51.364;7.246;2023-05-14T04:31:12;11.60;;;10.60;;
68050;SDS011;54839;51.364;7.246;2023-05-14T04:33:37;11.90;;;10.70;;
68050;SDS011;54839;51.364;7.246;2023-05-14T04:36:03;13.60;;;10.47;;
68050;SDS011;54839;51.364;7.246;2023-05-14T04:38:29;12.47;;;11.17;;
68050;SDS011;54839;51.364;7.246;2023-05-14T04:40:55;12.00;;;10.90;;
68050;SDS011;54839;51.364;7.246;2023-05-14T04:43:22;11.77;;;10.70;;
68050;SDS011;54839;51.364;7.246;2023-05-14T04:45:48;11.53;;;10.43;;
68050;SDS011;54839;51.364;7.246;2023-05-14T04:48:13;11.40;;;10.40;;
68050;SDS011;54839;51.364;7.246;2023-05-14T04:50:39;11.10;;;10.20;;
68050;SDS011;54839;51.364;7.246;2023-05-14T04:53:04;11.53;;;10.33;;
68050;SDS011;54839;51.364;7.246;2023-05-14T04:55:30;11.60;;;10.60;;
68050;SDS011;54839;51.364;7.246;2023-05-14T04:57:55;11.63;;;10.53;;
68050;SDS011;54839;51.364;7.246;2023-05-14T05:00:21;11.33;;;10.33;;
68050;SDS011;54839;51.364;7.246;2023-05-14T05:02:47;10.70;;;9.43;;
68050;SDS011;54839;51.364;7.246;2023-05-14T05:05:12;11.87;;;10.90;;
68050;SDS011;54839;51.364;7.246;2023-05-14T05:07:38;11.30;;;10.17;;
68050;SDS011;54839;51.364;7.246;2023-05-14T05:10:03;11.40;;;10.40;;
68050;SDS011;54839;51.364;7.246;2023-05-14T05:12:29;10.47;;;9.63;;
68050;SDS011;54839;51.364;7.246;2023-05-14T05:14:55;12.37;;;11.37;;
68050;SDS011;54839;51.364;7.246;2023-05-14T05:17:21;9.87;;;8.83;;
68050;SDS011;54839;51.364;7.246;2023-05-14T05:19:48;10.40;;;9.60;;
68050;SDS011;54839;51.364;7.246;2023-05-14T05:22:13;9.63;;;8.73;;
68050;SDS011;54839;51.364;7.246;2023-05-14T05:24:39;10.83;;;9.93;;
68050;SDS011;54839;51.364;7.246;2023-05-14T05:27:04;10.17;;;9.10;;
68050;SDS011;54839;51.364;7.246;2023-05-14T05:29:30;9.90;;;9.00;;
68050;SDS011;54839;51.364;7.246;2023-05-14T05:31:56;11.80;;;10.60;;
68050;SDS011;54839;51.364;7.246;2023-05-14T05:34:21;10.60;;;9.53;;
68050;SDS011;54839;51.364;7.246;2023-05-14T05:36:47;9.97;;;8.97;;
68050;SDS011;54839;51.364;7.246;2023-05-14T05:39:12;10.00;;;9.10;;
68050;SDS011;54839;51.364;7.246;2023-05-14T05:41:38;11.17;;;10.07;;
68050;SDS011;54839;51.364;7.246;2023-05-14T05:44:04;9.57;;;8.77;;
68050;SDS011;54839;51.364;7.246;2023-05-14T05:46:30;9.97;;;9.07;;
68050;SDS011;54839;51.364;7.246;2023-05-14T05:48:55;10.03;;;9.13;;
68050;SDS011;54839;51.364;7.246;2023-05-14T05:51:21;9.73;;;8.77;;
68050;SDS011;54839;51.364;7.246;2023-05-14T05:53:47;14.30;;;9.17;;
68050;SDS011;54839;51.364;7.246;2023-05-14T05:56:13;14.60;;;10.13;;
68050;SDS011;54839;51.364;7.246;2023-05-14T05:58:38;9.47;;;8.67;;
68050;SDS011;54839;51.364;7.246;2023-05-14T06:01:04;8.90;;;8.00;;
68050;SDS011;54839;51.364;7.246;2023-05-14T06:03:30;10.37;;;9.37;;
68050;SDS011;54839;51.364;7.246;2023-05-14T06:05:55;8.30;;;7.60;;
68050;SDS011;54839;51.364;7.246;2023-05-14T06:08:21;9.67;;;8.77;;
68050;SDS011;54839;51.364;7.246;2023-05-14T06:10:46;9.90;;;8.90;;
68050;SDS011;54839;51.364;7.246;2023-05-14T06:13:12;9.03;;;8.33;;
68050;SDS011;54839;51.364;7.246;2023-05-14T06:15:37;9.07;;;8.27;;
68050;SDS011;54839;51.364;7.246;2023-05-14T06:18:03;7.97;;;6.77;;
68050;SDS011;54839;51.364;7.246;2023-05-14T06:20:29;7.67;;;6.90;;
68050;SDS011;54839;51.364;7.246;2023-05-14T06:22:54;7.60;;;7.00;;
68050;SDS011;54839;51.364;7.246;2023-05-14T06:25:20;9.83;;;8.40;;
68050;SDS011;54839;51.364;7.246;2023-05-14T06:27:45;7.07;;;6.37;;
68050;SDS011;54839;51.364;7.246;2023-05-14T06:30:11;8.43;;;7.60;;
68050;SDS011;54839;51.364;7.246;2023-05-14T06:32:37;8.13;;;7.30;;
68050;SDS011;54839;51.364;7.246;2023-05-14T06:35:02;7.17;;;6.53;;
68050;SDS011;54839;51.364;7.246;2023-05-14T06:37:28;7.00;;;6.30;;
68050;SDS011;54839;51.364;7.246;2023-05-14T06:39:54;6.10;;;5.60;;
68050;SDS011;54839;51.364;7.246;2023-05-14T06:42:19;7.53;;;6.27;;
68050;SDS011;54839;51.364;7.246;2023-05-14T06:44:45;8.60;;;6.70;;
68050;SDS011;54839;51.364;7.246;2023-05-14T06:47:10;6.47;;;5.87;;
68050;SDS011;54839;51.364;7.246;2023-05-14T06:49:36;10.00;;;6.30;;
68050;SDS011;54839;51.364;7.246;2023-05-14T06:52:02;6.43;;;5.57;;
68050;SDS011;54839;51.364;7.246;2023-05-14T06:54:28;7.00;;;6.40;;
68050;SDS011;54839;51.364;7.246;2023-05-14T06:56:54;5.47;;;4.90;;
68050;SDS011;54839;51.364;7.246;2023-05-14T06:59:20;7.40;;;6.10;;
68050;SDS011;54839;51.364;7.246;2023-05-14T07:01:46;6.87;;;6.17;;
68050;SDS011;54839;51.364;7.246;2023-05-14T07:04:11;5.27;;;4.87;;
68050;SDS011;54839;51.364;7.246;2023-05-14T07:06:37;5.27;;;4.87;;
68050;SDS011;54839;51.364;7.246;2023-05-14T07:09:02;6.70;;;5.40;;
68050;SDS011;54839;51.364;7.246;2023-05-14T07:11:28;10.73;;;5.17;;
68050;SDS011;54839;51.364;7.246;2023-05-14T07:13:54;5.00;;;4.40;;
68050;SDS011;54839;51.364;7.246;2023-05-14T07:16:19;5.80;;;5.20;;
68050;SDS011;54839;51.364;7.246;2023-05-14T07:18:45;5.53;;;5.03;;
68050;SDS011;54839;51.364;7.246;2023-05-14T07:21:10;4.83;;;4.43;;
68050;SDS011;54839;51.364;7.246;2023-05-14T07:23:36;4.90;;;4.40;;
68050;SDS011;54839;51.364;7.246;2023-05-14T07:26:05;5.57;;;5.03;;
68050;SDS011;54839;51.364;7.246;2023-05-14T07:28:31;5.67;;;4.27;;
68050;SDS011;54839;51.364;7.246;2023-05-14T07:30:56;4.70;;;3.97;;
68050;SDS011;54839;51.364;7.246;2023-05-14T07:33:22;3.30;;;3.00;;
68050;SDS011;54839;51.364;7.246;2023-05-14T07:35:48;3.10;;;2.80;;
68050;SDS011;54839;51.364;7.246;2023-05-14T07:38:14;3.83;;;3.43;;
68050;SDS011;54839;51.364;7.246;2023-05-14T07:40:40;3.43;;;3.13;;
68050;SDS011;54839;51.364;7.246;2023-05-14T07:43:05;4.63;;;4.20;;
68050;SDS011;54839;51.364;7.246;2023-05-14T07:45:31;4.23;;;2.90;;
68050;SDS011;54839;51.364;7.246;2023-05-14T07:47:57;2.80;;;2.60;;
68050;SDS011;54839;51.364;7.246;2023-05-14T07:50:22;4.30;;;3.50;;
68050;SDS011;54839;51.364;7.246;2023-05-14T07:52:48;3.20;;;3.00;;
68050;SDS011;54839;51.364;7.246;2023-05-14T07:55:13;3.33;;;3.13;;
68050;SDS011;54839;51.364;7.246;2023-05-14T07:57:39;3.40;;;3.10;;
68050;SDS011;54839;51.364;7.246;2023-05-14T08:00:05;3.43;;;3.23;;
68050;SDS011;54839;51.364;7.246;2023-05-14T08:02:32;4.20;;;3.50;;
68050;SDS011;54839;51.364;7.246;2023-05-14T08:04:57;4.17;;;3.77;;
68050;SDS011;54839;51.364;7.246;2023-05-14T08:07:23;3.47;;;3.20;;
68050;SDS011;54839;51.364;7.246;2023-05-14T08:09:49;3.50;;;3.20;;
68050;SDS011;54839;51.364;7.246;2023-05-14T08:12:15;4.80;;;3.17;;
68050;SDS011;54839;51.364;7.246;2023-05-14T08:14:40;3.77;;;3.37;;
68050;SDS011;54839;51.364;7.246;2023-05-14T08:17:06;2.60;;;2.40;;
68050;SDS011;54839;51.364;7.246;2023-05-14T08:19:31;3.10;;;2.87;;
68050;SDS011;54839;51.364;7.246;2023-05-14T08:21:57;3.13;;;2.80;;
68050;SDS011;54839;51.364;7.246;2023-05-14T08:24:22;4.23;;;2.37;;
68050;SDS011;54839;51.364;7.246;2023-05-14T08:26:48;3.20;;;2.90;;
68050;SDS011;54839;51.364;7.246;2023-05-14T08:29:13;2.60;;;2.40;;
68050;SDS011;54839;51.364;7.246;2023-05-14T08:31:39;3.00;;;2.70;;
68050;SDS011;54839;51.364;7.246;2023-05-14T08:34:05;2.50;;;2.30;;
68050;SDS011;54839;51.364;7.246;2023-05-14T08:36:30;2.70;;;2.50;;
68050;SDS011;54839;51.364;7.246;2023-05-14T08:38:56;2.80;;;2.10;;
68050;SDS011;54839;51.364;7.246;2023-05-14T08:41:22;2.53;;;2.33;;
68050;SDS011;54839;51.364;7.246;2023-05-14T08:43:51;2.77;;;2.57;;
68050;SDS011;54839;51.364;7.246;2023-05-14T08:46:32;2.27;;;1.83;;
68050;SDS011;54839;51.364;7.246;2023-05-14T08:49:03;1.90;;;1.80;;
68050;SDS011;54839;51.364;7.246;2023-05-14T08:51:38;2.40;;;2.20;;
68050;SDS011;54839;51.364;7.246;2023-05-14T08:54:04;2.07;;;1.67;;
68050;SDS011;54839;51.364;7.246;2023-05-14T08:56:31;1.90;;;1.80;;
68050;SDS011;54839;51.364;7.246;2023-05-14T08:58:57;2.83;;;2.00;;
68050;SDS011;54839;51.364;7.246;2023-05-14T09:01:23;1.80;;;1.70;;
68050;SDS011;54839;51.364;7.246;2023-05-14T09:03:49;2.60;;;1.67;;
68050;SDS011;54839;51.364;7.246;2023-05-14T09:06:17;1.60;;;1.30;;
68050;SDS011;54839;51.364;7.246;2023-05-14T09:08:44;2.30;;;1.50;;
68050;SDS011;54839;51.364;7.246;2023-05-14T09:11:10;2.37;;;2.17;;
68050;SDS011;54839;51.364;7.246;2023-05-14T09:13:37;2.83;;;2.63;;
68050;SDS011;54839;51.364;7.246;2023-05-14T09:16:02;2.53;;;2.33;;
68050;SDS011;54839;51.364;7.246;2023-05-14T09:18:28;2.73;;;2.53;;
68050;SDS011;54839;51.364;7.246;2023-05-14T09:20:54;5.10;;;2.30;;
68050;SDS011;54839;51.364;7.246;2023-05-14T09:23:20;2.97;;;2.53;;
68050;SDS011;54839;51.364;7.246;2023-05-14T09:25:46;2.77;;;2.57;;
68050;SDS011;54839;51.364;7.246;2023-05-14T09:28:15;3.67;;;2.67;;
68050;SDS011;54839;51.364;7.246;2023-05-14T09:30:45;2.50;;;2.30;;
68050;SDS011;54839;51.364;7.246;2023-05-14T09:33:24;2.83;;;2.40;;
68050;SDS011;54839;51.364;7.246;2023-05-14T09:35:57;6.33;;;2.53;;
68050;SDS011;54839;51.364;7.246;2023-05-14T09:38:30;2.33;;;2.23;;
68050;SDS011;54839;51.364;7.246;2023-05-14T09:40:58;2.60;;;2.40;;
68050;SDS011;54839;51.364;7.246;2023-05-14T09:43:24;2.20;;;2.10;;
68050;SDS011;54839;51.364;7.246;2023-05-14T09:45:51;3.10;;;2.40;;
68050;SDS011;54839;51.364;7.246;2023-05-14T09:48:16;3.10;;;2.60;;
68050;SDS011;54839;51.364;7.246;2023-05-14T09:50:43;4.80;;;2.83;;
68050;SDS011;54839;51.364;7.246;2023-05-14T09:53:09;2.63;;;2.20;;
68050;SDS011;54839;51.364;7.246;2023-05-14T09:55:36;2.50;;;2.40;;
68050;SDS011;54839;51.364;7.246;2023-05-14T09:58:02;4.17;;;3.10;;
68050;SDS011;54839;51.364;7.246;2023-05-14T10:00:30;2.90;;;2.70;;
68050;SDS011;54839;51.364;7.246;2023-05-14T10:02:56;2.90;;;2.70;;
68050;SDS011;54839;51.364;7.246;2023-05-14T10:05:22;3.50;;;2.73;;
68050;SDS011;54839;51.364;7.246;2023-05-14T10:07:49;4.17;;;2.87;;
68050;SDS011;54839;51.364;7.246;2023-05-14T10:10:20;3.00;;;2.70;;
68050;SDS011;54839;51.364;7.246;2023-05-14T10:12:50;3.70;;;3.40;;
68050;SDS011;54839;51.364;7.246;2023-05-14T10:15:29;2.73;;;2.53;;
68050;SDS011;54839;51.364;7.246;2023-05-14T10:18:02;3.50;;;2.50;;
68050;SDS011;54839;51.364;7.246;2023-05-14T10:20:37;3.20;;;2.97;;
68050;SDS011;54839;51.364;7.246;2023-05-14T10:23:05;3.73;;;3.43;;
68050;SDS011;54839;51.364;7.246;2023-05-14T10:25:31;4.03;;;3.63;;
68050;SDS011;54839;51.364;7.246;2023-05-14T10:27:58;3.63;;;2.87;;
68050;SDS011;54839;51.364;7.246;2023-05-14T10:30:24;6.30;;;4.10;;
68050;SDS011;54839;51.364;7.246;2023-05-14T10:33:06;4.10;;;2.73;;
68050;SDS011;54839;51.364;7.246;2023-05-14T10:35:54;5.87;;;3.40;;
68050;SDS011;54839;51.364;7.246;2023-05-14T10:38:34;2.80;;;2.60;;
68050;SDS011;54839;51.364;7.246;2023-05-14T10:41:04;6.57;;;3.20;;
68050;SDS011;54839;51.364;7.246;2023-05-14T10:43:38;6.37;;;3.87;;
68050;SDS011;54839;51.364;7.246;2023-05-14T10:46:05;3.40;;;3.10;;
68050;SDS011;54839;51.364;7.246;2023-05-14T10:48:31;4.70;;;3.50;;
68050;SDS011;54839;51.364;7.246;2023-05-14T10:50:58;7.93;;;3.67;;
68050;SDS011;54839;51.364;7.246;2023-05-14T10:53:31;3.70;;;3.40;;
68050;SDS011;54839;51.364;7.246;2023-05-14T10:56:01;3.10;;;2.90;;
68050;SDS011;54839;51.364;7.246;2023-05-14T10:58:29;3.47;;;3.17;;
68050;SDS011;54839;51.364;7.246;2023-05-14T11:00:58;3.20;;;2.90;;
68050;SDS011;54839;51.364;7.246;2023-05-14T11:03:27;3.30;;;3.10;;
68050;SDS011;54839;51.364;7.246;2023-05-14T11:05:54;3.53;;;3.00;;
68050;SDS011;54839;51.364;7.246;2023-05-14T11:08:19;3.30;;;3.00;;
68050;SDS011;54839;51.364;7.246;2023-05-14T11:10:46;4.10;;;3.47;;
68050;SDS011;54839;51.364;7.246;2023-05-14T11:13:13;4.23;;;3.37;;
68050;SDS011;54839;51.364;7.246;2023-05-14T11:15:40;3.17;;;2.87;;
68050;SDS011;54839;51.364;7.246;2023-05-14T11:18:11;4.20;;;2.93;;
68050;SDS011;54839;51.364;7.246;2023-05-14T11:20:36;3.40;;;3.10;;
68050;SDS011;54839;51.364;7.246;2023-05-14T11:23:02;2.67;;;2.47;;
68050;SDS011;54839;51.364;7.246;2023-05-14T11:25:28;3.30;;;2.60;;
68050;SDS011;54839;51.364;7.246;2023-05-14T11:27:54;3.00;;;2.70;;
68050;SDS011;54839;51.364;7.246;2023-05-14T11:30:24;2.93;;;2.67;;
68050;SDS011;54839;51.364;7.246;2023-05-14T11:32:50;10.60;;;3.07;;
68050;SDS011;54839;51.364;7.246;2023-05-14T11:35:16;3.60;;;3.30;;
68050;SDS011;54839;51.364;7.246;2023-05-14T11:37:43;3.30;;;3.10;;
68050;SDS011;54839;51.364;7.246;2023-05-14T11:40:15;3.43;;;3.13;;
68050;SDS011;54839;51.364;7.246;2023-05-14T11:42:41;3.37;;;2.50;;
68050;SDS011;54839;51.364;7.246;2023-05-14T11:45:09;3.63;;;2.73;;
68050;SDS011;54839;51.364;7.246;2023-05-14T11:47:36;4.50;;;3.17;;
68050;SDS011;54839;51.364;7.246;2023-05-14T11:50:01;4.20;;;2.83;;
68050;SDS011;54839;51.364;7.246;2023-05-14T11:52:27;6.13;;;3.37;;
68050;SDS011;54839;51.364;7.246;2023-05-14T11:54:53;3.60;;;3.27;;
68050;SDS011;54839;51.364;7.246;2023-05-14T11:57:20;3.77;;;3.37;;
68050;SDS011;54839;51.364;7.246;2023-05-14T11:59:54;2.90;;;2.70;;
68050;SDS011;54839;51.364;7.246;2023-05-14T12:02:23;3.60;;;3.07;;
68050;SDS011;54839;51.364;7.246;2023-05-14T12:04:52;3.57;;;2.40;;
68050;SDS011;54839;51.364;7.246;2023-05-14T12:07:18;3.47;;;3.17;;
68050;SDS011;54839;51.364;7.246;2023-05-14T12:09:45;6.93;;;3.80;;
68050;SDS011;54839;51.364;7.246;2023-05-14T12:12:16;3.37;;;3.17;;
68050;SDS011;54839;51.364;7.246;2023-05-14T12:14:43;3.60;;;3.30;;
68050;SDS011;54839;51.364;7.246;2023-05-14T12:17:13;2.50;;;2.30;;
68050;SDS011;54839;51.364;7.246;2023-05-14T12:19:41;3.10;;;2.90;;
68050;SDS011;54839;51.364;7.246;2023-05-14T12:22:08;4.10;;;3.00;;
68050;SDS011;54839;51.364;7.246;2023-05-14T12:24:38;5.13;;;3.50;;
68050;SDS011;54839;51.364;7.246;2023-05-14T12:27:06;4.50;;;2.70;;
68050;SDS011;54839;51.364;7.246;2023-05-14T12:29:36;3.10;;;2.80;;
68050;SDS011;54839;51.364;7.246;2023-05-14T12:32:05;3.57;;;3.27;;
68050;SDS011;54839;51.364;7.246;2023-05-14T12:34:33;3.00;;;2.70;;
68050;SDS011;54839;51.364;7.246;2023-05-14T12:36:59;4.10;;;2.70;;
68050;SDS011;54839;51.364;7.246;2023-05-14T12:39:25;3.97;;;3.67;;
68050;SDS011;54839;51.364;7.246;2023-05-14T12:41:50;2.77;;;2.50;;
68050;SDS011;54839;51.364;7.246;2023-05-14T12:44:16;2.63;;;2.40;;
68050;SDS011;54839;51.364;7.246;2023-05-14T12:46:42;2.60;;;2.30;;
68050;SDS011;54839;51.364;7.246;2023-05-14T12:49:08;4.70;;;2.63;;
68050;SDS011;54839;51.364;7.246;2023-05-14T12:51:33;3.10;;;2.80;;
68050;SDS011;54839;51.364;7.246;2023-05-14T12:53:59;2.37;;;2.20;;
68050;SDS011;54839;51.364;7.246;2023-05-14T12:56:24;2.90;;;2.70;;
68050;SDS011;54839;51.364;7.246;2023-05-14T12:58:53;2.80;;;2.50;;
68050;SDS011;54839;51.364;7.246;2023-05-14T13:01:19;3.23;;;2.70;;
68050;SDS011;54839;51.364;7.246;2023-05-14T13:03:45;3.80;;;2.53;;
68050;SDS011;54839;51.364;7.246;2023-05-14T13:06:11;2.37;;;2.20;;
68050;SDS011;54839;51.364;7.246;2023-05-14T13:08:36;2.63;;;2.40;;
68050;SDS011;54839;51.364;7.246;2023-05-14T13:11:02;2.80;;;2.60;;
68050;SDS011;54839;51.364;7.246;2023-05-14T13:13:28;2.30;;;2.17;;
68050;SDS011;54839;51.364;7.246;2023-05-14T13:15:53;2.60;;;1.63;;
68050;SDS011;54839;51.364;7.246;2023-05-14T13:18:19;2.87;;;2.20;;
68050;SDS011;54839;51.364;7.246;2023-05-14T13:20:45;2.97;;;2.27;;
68050;SDS011;54839;51.364;7.246;2023-05-14T13:23:11;4.83;;;3.60;;
68050;SDS011;54839;51.364;7.246;2023-05-14T13:25:37;1.90;;;1.73;;
68050;SDS011;54839;51.364;7.246;2023-05-14T13:28:03;2.73;;;2.53;;
68050;SDS011;54839;51.364;7.246;2023-05-14T13:30:29;3.33;;;3.03;;
68050;SDS011;54839;51.364;7.246;2023-05-14T13:32:55;6.03;;;5.40;;
68050;SDS011;54839;51.364;7.246;2023-05-14T13:35:21;2.50;;;2.30;;
68050;SDS011;54839;51.364;7.246;2023-05-14T13:37:47;2.63;;;2.03;;
68050;SDS011;54839;51.364;7.246;2023-05-14T13:40:12;2.73;;;2.47;;
68050;SDS011;54839;51.364;7.246;2023-05-14T13:42:38;3.40;;;1.90;;
68050;SDS011;54839;51.364;7.246;2023-05-14T13:45:04;2.07;;;1.97;;
68050;SDS011;54839;51.364;7.246;2023-05-14T13:47:30;2.53;;;2.33;;
68050;SDS011;54839;51.364;7.246;2023-05-14T13:49:56;3.00;;;2.63;;
68050;SDS011;54839;51.364;7.246;2023-05-14T13:52:22;3.03;;;2.37;;
68050;SDS011;54839;51.364;7.246;2023-05-14T13:54:48;2.70;;;2.10;;
68050;SDS011;54839;51.364;7.246;2023-05-14T13:57:13;3.33;;;2.10;;
68050;SDS011;54839;51.364;7.246;2023-05-14T13:59:39;2.70;;;2.17;;
68050;SDS011;54839;51.364;7.246;2023-05-14T14:02:05;2.50;;;2.30;;
68050;SDS011;54839;51.364;7.246;2023-05-14T14:04:31;2.43;;;2.03;;
68050;SDS011;54839;51.364;7.246;2023-05-14T14:06:57;1.97;;;1.87;;
68050;SDS011;54839;51.364;7.246;2023-05-14T14:09:23;2.07;;;1.97;;
68050;SDS011;54839;51.364;7.246;2023-05-14T14:11:49;2.93;;;1.90;;
68050;SDS011;54839;51.364;7.246;2023-05-14T14:14:15;1.70;;;1.60;;
68050;SDS011;54839;51.364;7.246;2023-05-14T14:16:41;3.23;;;2.13;;
68050;SDS011;54839;51.364;7.246;2023-05-14T14:19:07;1.67;;;1.57;;
68050;SDS011;54839;51.364;7.246;2023-05-14T14:21:33;1.93;;;1.70;;
68050;SDS011;54839;51.364;7.246;2023-05-14T14:23:59;2.13;;;1.63;;
68050;SDS011;54839;51.364;7.246;2023-05-14T14:26:25;2.80;;;2.30;;
68050;SDS011;54839;51.364;7.246;2023-05-14T14:28:54;3.03;;;1.80;;
68050;SDS011;54839;51.364;7.246;2023-05-14T14:31:20;1.40;;;1.30;;
68050;SDS011;54839;51.364;7.246;2023-05-14T14:33:46;2.20;;;2.00;;
68050;SDS011;54839;51.364;7.246;2023-05-14T14:36:11;2.57;;;2.37;;
68050;SDS011;54839;51.364;7.246;2023-05-14T14:38:37;1.87;;;1.77;;
68050;SDS011;54839;51.364;7.246;2023-05-14T14:41:03;2.30;;;2.10;;